Time;durP1;ratioP1;P1;durP2;ratioP2;P2;SDS_P1;SDS_P2;PMS_P1;PMS_P2;Temp;Humidity;BMP_temperature;BMP_pressure;BME280_temperature;BME280_humidity;BME280_pressure;Samples;Min_cycle;Max_cycle;Signal;HPM_P1;HPM_P2
2023/02/14 00:00:44;;;;;;;17.15;8.02;;;6.20;93.30;;;;;;5069664;28;20635;-55
2023/02/14 00:03:11;;;;;;;19.65;9.38;;;6.20;93.10;;;;;;5072490;28;20021;-54
2023/02/14 00:05:37;;;;;;;19.75;9.43;;;6.20;93.10;;;;;;5078408;28;20455;-56
2023/02/14 00:08:02;;;;;;;20.77;9.93;;;6.20;93.50;;;;;;5073097;28;20044;-56
2023/02/14 00:10:28;;;;;;;20.98;9.55;;;6.20;93.80;;;;;;5089799;28;20028;-55
2023/02/14 00:12:53;;;;;;;19.63;8.60;;;6.20;94.40;;;;;;5055446;28;20480;-53
2023/02/14 00:15:22;;;;;;;16.35;8.55;;;6.20;94.40;;;;;;5069352;28;20161;-55
2023/02/14 00:17:53;;;;;;;19.63;9.23;;;6.20;94.30;;;;;;5075582;28;20029;-55
2023/02/14 00:20:19;;;;;;;15.13;7.15;;;6.10;94.40;;;;;;5088188;28;20395;-54
2023/02/14 00:22:45;;;;;;;23.80;10.13;;;6.20;94.50;;;;;;5055572;28;20124;-55
2023/02/14 00:25:11;;;;;;;18.02;8.52;;;6.20;94.50;;;;;;5068213;28;20472;-55
2023/02/14 00:27:37;;;;;;;21.17;10.45;;;6.20;94.70;;;;;;5087437;28;20024;-55
2023/02/14 00:30:03;;;;;;;19.13;9.65;;;6.20;94.80;;;;;;5070122;28;20115;-54
2023/02/14 00:32:29;;;;;;;22.70;10.38;;;6.20;94.70;;;;;;5087453;28;20047;-54
2023/02/14 00:34:55;;;;;;;18.90;10.20;;;6.10;94.70;;;;;;5070169;28;20146;-55
2023/02/14 00:37:21;;;;;;;22.70;10.40;;;6.20;94.80;;;;;;5087258;28;20028;-54
2023/02/14 00:39:46;;;;;;;17.67;8.85;;;6.20;94.80;;;;;;5069954;28;20036;-53
2023/02/14 00:42:13;;;;;;;23.05;9.65;;;6.20;94.60;;;;;;5087235;28;20502;-53
2023/02/14 00:44:39;;;;;;;21.50;9.40;;;6.10;94.50;;;;;;5089624;28;20024;-55
2023/02/14 00:47:04;;;;;;;16.35;9.13;;;6.10;94.70;;;;;;5068166;28;20042;-55
2023/02/14 00:49:30;;;;;;;20.13;9.98;;;6.10;95.30;;;;;;5068092;28;20024;-52
2023/02/14 00:51:55;;;;;;;19.58;9.73;;;6.10;95.20;;;;;;5086880;28;20035;-55
2023/02/14 00:54:21;;;;;;;21.25;10.27;;;6.10;95.20;;;;;;5089707;28;20573;-56
2023/02/14 00:56:46;;;;;;;21.25;10.32;;;6.00;95.20;;;;;;5068007;28;20031;-56
2023/02/14 00:59:12;;;;;;;20.55;10.23;;;6.00;95.20;;;;;;5069368;28;20020;-56
2023/02/14 01:01:37;;;;;;;21.00;9.77;;;6.00;95.50;;;;;;5085549;28;20047;-56
2023/02/14 01:04:04;;;;;;;20.83;10.00;;;6.00;95.80;;;;;;5089329;28;20528;-57
2023/02/14 01:06:29;;;;;;;15.70;8.88;;;5.90;96.00;;;;;;5064097;28;20036;-53
2023/02/14 01:08:55;;;;;;;22.88;9.90;;;5.90;96.30;;;;;;5049533;28;20397;-56
2023/02/14 01:11:22;;;;;;;21.05;10.57;;;5.90;96.50;;;;;;5068063;28;20025;-53
2023/02/14 01:13:49;;;;;;;22.35;9.90;;;5.90;96.80;;;;;;5052220;28;20481;-54
2023/02/14 01:16:18;;;;;;;20.42;9.48;;;5.90;96.90;;;;;;5084727;28;20232;-56
2023/02/14 01:18:44;;;;;;;20.63;9.77;;;5.90;97.00;;;;;;5070395;28;20028;-58
2023/02/14 01:21:20;;;;;;;20.05;9.77;;;5.80;97.20;;;;;;5084026;28;20174;-57
2023/02/14 01:23:47;;;;;;;;;;;5.90;97.40;;;;;;5069692;28;20025;-58
2023/02/14 01:26:13;;;;;;;18.13;8.57;;;5.90;97.50;;;;;;5079791;28;19955;-57
2023/02/14 01:28:38;;;;;;;20.88;9.85;;;5.80;97.20;;;;;;5080605;28;20062;-57
2023/02/14 01:31:16;;;;;;;23.52;9.27;;;5.80;96.90;;;;;;5057524;28;20071;-57
2023/02/14 01:33:43;;;;;;;18.15;8.45;;;5.80;97.20;;;;;;5048798;28;20098;-58
2023/02/14 01:36:21;;;;;;;18.45;8.30;;;5.70;97.80;;;;;;5079010;28;20032;-58
2023/02/14 01:38:50;;;;;;;19.73;8.75;;;5.70;97.60;;;;;;5065667;28;20025;-56
2023/02/14 01:41:15;;;;;;;18.40;9.15;;;5.70;97.60;;;;;;5048668;28;20116;-58
2023/02/14 01:43:53;;;;;;;19.40;9.00;;;5.70;97.80;;;;;;5067698;28;20084;-57
2023/02/14 01:46:19;;;;;;;18.13;8.63;;;5.70;98.10;;;;;;5049868;28;20124;-58
2023/02/14 01:48:45;;;;;;;14.00;7.72;;;5.70;98.40;;;;;;5085696;28;20119;-58
2023/02/14 01:51:13;;;;;;;21.83;9.70;;;5.70;98.60;;;;;;5068752;28;20085;-56
2023/02/14 01:53:38;;;;;;;16.75;8.52;;;5.70;98.70;;;;;;5083334;28;20111;-59
2023/02/14 01:56:12;;;;;;;20.02;9.55;;;5.70;98.60;;;;;;5068824;28;20423;-55
2023/02/14 01:58:43;;;;;;;18.52;9.43;;;5.60;98.80;;;;;;5080145;28;20205;-58
2023/02/14 02:01:12;;;;;;;20.50;9.15;;;5.60;99.00;;;;;;5047121;28;20083;-59
2023/02/14 02:03:44;;;;;;;16.52;8.68;;;5.60;99.10;;;;;;5079580;28;20058;-55
2023/02/14 02:06:11;;;;;;;15.95;8.38;;;5.60;99.30;;;;;;5064659;28;20040;-57
2023/02/14 02:08:46;;;;;;;16.38;8.18;;;5.60;99.30;;;;;;5059758;28;20060;-57
2023/02/14 02:11:11;;;;;;;19.42;8.98;;;5.60;99.40;;;;;;5047463;28;20036;-57
2023/02/14 02:13:37;;;;;;;21.27;9.25;;;5.60;99.40;;;;;;5070293;28;20156;-57
2023/02/14 02:16:20;;;;;;;17.40;7.72;;;5.60;99.50;;;;;;5085381;28;20035;-45
2023/02/14 02:19:28;;;;;;;19.75;9.52;;;5.60;99.90;;;;;;5048169;28;20107;-52
2023/02/14 02:22:18;;;;;;;18.02;8.00;;;5.60;99.90;;;;;;5068336;28;20106;-45
2023/02/14 02:25:23;;;;;;;14.48;7.32;;;5.60;99.90;;;;;;5046317;28;20025;-47
2023/02/14 02:28:23;;;;;;;18.48;8.27;;;5.60;99.90;;;;;;5048181;28;20033;-47
2023/02/14 02:31:19;;;;;;;17.90;8.35;;;5.60;99.90;;;;;;5061312;28;20028;-47
2023/02/14 02:34:19;;;;;;;21.00;9.00;;;5.60;99.90;;;;;;5045975;28;20043;-44
2023/02/14 02:37:07;;;;;;;15.93;7.88;;;5.60;99.90;;;;;;5047770;28;20640;-45
2023/02/14 02:39:54;;;;;;;17.40;8.50;;;5.60;99.90;;;;;;5058734;28;20024;-44
2023/02/14 02:42:29;;;;;;;15.70;7.30;;;5.60;99.90;;;;;;5074387;28;20024;-45
2023/02/14 02:45:06;;;;;;;15.10;7.53;;;5.60;99.90;;;;;;5048111;28;20116;-46
2023/02/14 02:47:51;;;;;;;17.25;8.25;;;5.60;99.90;;;;;;5087698;28;20286;-46
2023/02/14 02:53:41;;;;;;;19.92;9.43;;;5.50;99.90;;;;;;5046751;28;20087;-48
2023/02/14 02:59:19;;;;;;;19.98;8.75;;;5.50;99.90;;;;;;5053003;28;20036;-48
2023/02/14 03:02:16;;;;;;;21.17;10.20;;;5.50;99.90;;;;;;5068020;28;20052;-48
2023/02/14 03:04:53;;;;;;;21.10;8.35;;;5.50;99.90;;;;;;5057322;28;20020;-50
2023/02/14 03:07:38;;;;;;;20.98;9.18;;;5.50;99.90;;;;;;5082431;28;20036;-49
2023/02/14 03:10:14;;;;;;;16.48;7.50;;;5.50;99.90;;;;;;5066044;28;20028;-54
2023/02/14 03:12:42;;;;;;;14.40;8.20;;;5.50;99.90;;;;;;5087549;28;20024;-63
2023/02/14 03:15:26;;;;;;;18.17;8.77;;;5.40;99.90;;;;;;5066565;28;20028;-63
2023/02/14 03:21:13;;;;;;;21.92;9.20;;;5.40;99.90;;;;;;5047908;28;20421;-63
2023/02/14 03:23:55;;;;;;;16.15;7.53;;;5.40;99.90;;;;;;5048550;28;20032;-63
2023/02/14 03:26:32;;;;;;;13.50;6.90;;;5.40;99.90;;;;;;5067728;28;20036;-63
2023/02/14 03:29:28;;;;;;;17.65;8.52;;;5.40;99.90;;;;;;5051112;28;20028;-63
2023/02/14 03:32:09;;;;;;;20.55;9.27;;;5.40;99.90;;;;;;5067543;28;20028;-63
2023/02/14 03:34:46;;;;;;;19.48;8.57;;;5.40;99.90;;;;;;5056220;28;20036;-64
2023/02/14 03:37:12;;;;;;;18.65;9.57;;;5.30;99.90;;;;;;5057215;28;20037;-63
2023/02/14 03:40:01;;;;;;;19.80;9.70;;;5.30;99.90;;;;;;5085996;28;20039;-64
2023/02/14 03:42:32;;;;;;;20.83;10.07;;;5.30;99.90;;;;;;5059322;28;20047;-63
2023/02/14 03:45:02;;;;;;;19.27;10.50;;;5.40;99.90;;;;;;5047474;28;20040;-64
2023/02/14 03:47:32;;;;;;;23.15;12.02;;;5.30;99.90;;;;;;5059407;28;20037;-63
2023/02/14 03:50:03;;;;;;;22.65;10.40;;;5.30;99.90;;;;;;5087431;28;20024;-64
2023/02/14 03:52:31;;;;;;;21.48;11.35;;;5.30;99.90;;;;;;5059589;28;20056;-63
2023/02/14 03:54:59;;;;;;;26.02;12.40;;;5.40;99.90;;;;;;5085928;28;20062;-63
2023/02/14 03:57:30;;;;;;;21.25;10.93;;;5.30;99.90;;;;;;5052443;28;20036;-64
2023/02/14 03:59:56;;;;;;;23.63;12.52;;;5.30;99.90;;;;;;5047654;28;20103;-64
2023/02/14 04:02:32;;;;;;;25.30;12.35;;;5.40;99.90;;;;;;5074884;28;20029;-63
2023/02/14 04:04:59;;;;;;;24.65;12.25;;;5.30;99.90;;;;;;5080816;28;20052;-63
2023/02/14 04:07:25;;;;;;;24.60;12.27;;;5.40;99.90;;;;;;5068788;28;20063;-63
2023/02/14 04:09:51;;;;;;;24.80;12.63;;;5.40;99.90;;;;;;5090272;28;20025;-64
2023/02/14 04:12:18;;;;;;;23.13;12.00;;;5.40;99.90;;;;;;5057327;28;20072;-64
2023/02/14 04:14:43;;;;;;;23.33;12.57;;;5.30;99.90;;;;;;5070227;28;20060;-63
2023/02/14 04:19:53;;;;;;;24.38;11.60;;;5.30;99.90;;;;;;5050669;28;20035;-63
2023/02/14 04:22:19;;;;;;;21.00;10.52;;;5.40;99.90;;;;;;5075014;28;20476;-64
2023/02/14 04:24:44;;;;;;;24.98;11.80;;;5.30;99.90;;;;;;5089981;28;20028;-63
2023/02/14 04:27:10;;;;;;;22.55;10.65;;;5.30;99.90;;;;;;5063875;28;20020;-64
2023/02/14 04:29:42;;;;;;;23.42;11.05;;;5.30;99.90;;;;;;5090898;28;20024;-64
2023/02/14 04:32:09;;;;;;;24.27;10.15;;;5.30;99.90;;;;;;5068796;28;20052;-63
2023/02/14 04:34:35;;;;;;;19.10;10.50;;;5.30;99.90;;;;;;5090142;28;20067;-64
2023/02/14 04:37:01;;;;;;;22.25;10.68;;;5.30;99.90;;;;;;5068959;28;20075;-63
2023/02/14 04:39:27;;;;;;;22.40;10.60;;;5.30;99.90;;;;;;5090096;28;20118;-64
2023/02/14 04:41:52;;;;;;;20.10;10.02;;;5.30;99.90;;;;;;5068913;28;20173;-63
2023/02/14 04:44:18;;;;;;;17.00;8.82;;;5.30;99.90;;;;;;5089830;28;20507;-63
2023/02/14 04:46:43;;;;;;;17.77;10.02;;;5.30;99.90;;;;;;5066355;28;20055;-63
2023/02/14 04:49:09;;;;;;;19.17;9.43;;;5.30;99.90;;;;;;5088952;28;20055;-64
2023/02/14 04:51:34;;;;;;;20.17;11.35;;;5.30;99.70;;;;;;5057230;28;20519;-64
2023/02/14 04:54:00;;;;;;;20.45;10.80;;;5.20;95.80;;;;;;5068907;28;20033;-63
2023/02/14 04:56:26;;;;;;;19.05;10.32;;;5.20;94.80;;;;;;5067298;28;20032;-63
2023/02/14 04:58:52;;;;;;;18.73;10.90;;;5.20;96.80;;;;;;5068944;28;20036;-63
2023/02/14 05:01:17;;;;;;;23.27;10.98;;;5.20;97.00;;;;;;5068492;28;20032;-63
2023/02/14 05:03:43;;;;;;;20.70;10.45;;;5.20;98.50;;;;;;5068545;28;20032;-63
2023/02/14 05:06:08;;;;;;;20.25;10.50;;;5.20;98.90;;;;;;5069040;28;20033;-65
2023/02/14 05:08:34;;;;;;;21.17;9.95;;;5.20;99.50;;;;;;5068026;28;20594;-63
2023/02/14 05:10:59;;;;;;;23.73;9.73;;;5.20;99.30;;;;;;5066997;28;20099;-63
2023/02/14 05:13:25;;;;;;;23.13;10.10;;;5.20;99.90;;;;;;5069709;28;20036;-63
2023/02/14 05:15:50;;;;;;;19.27;8.60;;;5.30;99.90;;;;;;5086455;28;20431;-62
2023/02/14 05:18:16;;;;;;;18.70;9.20;;;5.30;99.90;;;;;;5088745;28;20077;-63
2023/02/14 05:20:41;;;;;;;21.92;9.77;;;5.30;99.90;;;;;;5068289;28;20063;-61
2023/02/14 05:23:12;;;;;;;20.73;9.68;;;5.20;99.90;;;;;;5069492;28;20028;-62
2023/02/14 05:25:38;;;;;;;16.77;8.70;;;5.20;99.90;;;;;;5051148;28;20040;-63
2023/02/14 05:28:04;;;;;;;19.05;9.52;;;5.20;99.90;;;;;;5069436;28;20037;-62
2023/02/14 05:30:29;;;;;;;20.48;9.93;;;5.20;99.90;;;;;;5082461;28;20039;-63
2023/02/14 05:32:55;;;;;;;22.23;9.95;;;5.20;99.90;;;;;;5049695;28;20530;-62
2023/02/14 05:35:20;;;;;;;20.70;10.00;;;5.20;99.90;;;;;;5083053;28;20020;-63
2023/02/14 05:37:46;;;;;;;20.05;8.30;;;5.20;99.90;;;;;;5049178;28;20027;-63
2023/02/14 05:40:15;;;;;;;17.65;8.32;;;5.20;99.90;;;;;;5087796;28;20032;-64
2023/02/14 05:42:41;;;;;;;18.65;7.75;;;5.20;99.90;;;;;;5059386;28;20518;-64
2023/02/14 05:45:07;;;;;;;17.75;8.95;;;5.20;99.90;;;;;;5089408;28;20103;-64
2023/02/14 05:47:33;;;;;;;18.98;9.57;;;5.20;99.90;;;;;;5048633;28;20063;-63
2023/02/14 05:49:58;;;;;;;22.02;10.25;;;5.20;99.90;;;;;;5064208;28;20587;-64
2023/02/14 05:52:24;;;;;;;19.65;9.65;;;5.20;99.90;;;;;;5068292;28;20029;-63
2023/02/14 05:54:50;;;;;;;18.20;9.55;;;5.20;99.90;;;;;;5066235;28;20430;-63
2023/02/14 05:57:15;;;;;;;16.30;8.63;;;5.20;99.90;;;;;;5067994;28;20032;-63
2023/02/14 05:59:41;;;;;;;25.95;10.82;;;5.20;99.90;;;;;;5066576;28;20111;-60
2023/02/14 06:02:06;;;;;;;19.08;10.40;;;5.20;99.90;;;;;;5063202;28;20033;-62
2023/02/14 06:04:32;;;;;;;19.83;9.70;;;5.20;99.90;;;;;;5085983;28;20024;-61
2023/02/14 06:06:57;;;;;;;17.63;8.77;;;5.20;99.90;;;;;;5081873;28;20676;-62
2023/02/14 06:09:23;;;;;;;17.63;9.18;;;5.20;99.90;;;;;;5088926;28;20451;-63
2023/02/14 06:11:48;;;;;;;21.10;9.90;;;5.20;99.90;;;;;;5066938;28;20098;-62
2023/02/14 06:14:14;;;;;;;18.17;9.15;;;5.20;99.90;;;;;;5073602;28;20475;-62
2023/02/14 06:16:40;;;;;;;21.83;9.90;;;5.20;99.90;;;;;;5086815;28;20484;-63
2023/02/14 06:19:05;;;;;;;23.92;9.65;;;5.10;99.90;;;;;;5087848;28;20028;-63
2023/02/14 06:21:30;;;;;;;23.17;9.65;;;5.10;99.90;;;;;;5066392;28;20029;-64
2023/02/14 06:23:56;;;;;;;15.77;9.00;;;5.10;99.90;;;;;;5067685;28;20851;-63
2023/02/14 06:26:22;;;;;;;22.02;9.88;;;5.10;99.90;;;;;;5085672;28;20043;-63
2023/02/14 06:28:55;;;;;;;17.75;9.07;;;5.10;99.90;;;;;;5088468;28;20024;-63
2023/02/14 06:31:22;;;;;;;18.33;8.60;;;5.10;99.90;;;;;;5060487;28;20063;-63
2023/02/14 06:33:47;;;;;;;20.02;8.88;;;5.10;99.90;;;;;;5065674;28;20085;-64
2023/02/14 06:36:13;;;;;;;19.48;10.00;;;5.10;99.90;;;;;;5048293;28;20044;-64
2023/02/14 06:38:38;;;;;;;20.48;10.25;;;5.10;99.90;;;;;;5066247;28;20194;-64
2023/02/14 06:41:06;;;;;;;24.08;10.45;;;5.10;99.90;;;;;;5068921;28;20032;-64
2023/02/14 06:43:31;;;;;;;22.08;9.85;;;5.00;99.90;;;;;;5086755;28;20067;-64
2023/02/14 06:45:57;;;;;;;22.90;11.02;;;5.00;99.90;;;;;;5050962;28;20061;-64
2023/02/14 06:48:22;;;;;;;20.27;9.25;;;5.10;99.90;;;;;;5073806;28;20037;-63
2023/02/14 06:50:48;;;;;;;21.45;10.32;;;5.10;99.90;;;;;;5051795;28;20036;-63
2023/02/14 06:53:14;;;;;;;21.63;9.73;;;5.10;99.90;;;;;;5065739;28;20033;-58
2023/02/14 06:55:39;;;;;;;18.20;9.65;;;5.20;99.90;;;;;;5072522;28;20497;-60
2023/02/14 06:58:05;;;;;;;23.48;10.13;;;5.20;99.90;;;;;;5086192;28;20032;-59
2023/02/14 07:00:30;;;;;;;16.02;8.55;;;5.30;99.90;;;;;;5065457;28;20059;-63
2023/02/14 07:02:56;;;;;;;19.42;9.27;;;5.30;99.90;;;;;;5084118;28;20041;-64
2023/02/14 07:05:21;;;;;;;23.23;10.68;;;5.30;99.90;;;;;;5072098;28;20063;-63
2023/02/14 07:07:47;;;;;;;24.77;10.43;;;5.30;99.90;;;;;;5066165;28;20036;-62
2023/02/14 07:10:12;;;;;;;21.08;10.20;;;5.30;99.90;;;;;;5086381;28;20028;-63
2023/02/14 07:12:38;;;;;;;23.58;10.55;;;5.30;99.90;;;;;;5065337;28;20028;-64
2023/02/14 07:15:06;;;;;;;21.27;11.27;;;5.40;99.90;;;;;;5066879;28;20021;-63
2023/02/14 07:17:31;;;;;;;19.23;9.27;;;5.40;99.90;;;;;;5084202;28;20028;-64
2023/02/14 07:19:57;;;;;;;15.10;9.18;;;5.40;99.90;;;;;;5086956;28;20040;-64
2023/02/14 07:22:22;;;;;;;20.27;9.32;;;5.50;99.90;;;;;;5065510;28;20084;-63
2023/02/14 07:24:48;;;;;;;22.63;10.60;;;5.50;99.90;;;;;;5067511;28;20028;-62
2023/02/14 07:27:13;;;;;;;20.95;9.95;;;5.40;99.90;;;;;;5078722;28;20520;-61
2023/02/14 07:29:39;;;;;;;18.13;9.95;;;5.40;99.90;;;;;;5072784;28;20032;-63
2023/02/14 07:32:04;;;;;;;18.52;10.70;;;5.40;99.90;;;;;;5083907;28;20028;-63
2023/02/14 07:34:30;;;;;;;20.75;10.95;;;5.50;99.90;;;;;;5052369;28;20400;-63
2023/02/14 07:36:55;;;;;;;18.73;9.57;;;5.50;99.90;;;;;;5070367;28;20040;-63
2023/02/14 07:39:21;;;;;;;16.63;9.50;;;5.50;99.90;;;;;;5076857;28;20035;-63
2023/02/14 07:41:46;;;;;;;24.10;11.30;;;5.50;99.90;;;;;;5090740;28;20107;-63
2023/02/14 07:44:13;;;;;;;27.15;12.32;;;5.60;99.90;;;;;;5069654;28;20024;-63
2023/02/14 07:46:38;;;;;;;23.98;12.00;;;5.60;99.90;;;;;;5090959;28;20064;-63
2023/02/14 07:49:04;;;;;;;25.80;12.70;;;5.70;99.90;;;;;;5069809;28;20496;-63
2023/02/14 07:51:29;;;;;;;23.42;11.77;;;5.70;99.90;;;;;;5090726;28;20028;-63
2023/02/14 07:53:55;;;;;;;22.80;11.38;;;5.70;99.90;;;;;;5069542;28;20532;-63
2023/02/14 07:56:20;;;;;;;20.17;10.27;;;5.80;99.90;;;;;;5090547;28;20099;-63
2023/02/14 07:58:46;;;;;;;19.58;10.57;;;5.80;99.90;;;;;;5069420;28;20032;-63
2023/02/14 08:01:11;;;;;;;21.73;10.90;;;5.80;99.80;;;;;;5070979;28;20448;-63
2023/02/14 08:03:37;;;;;;;24.95;11.13;;;5.90;98.40;;;;;;5088359;28;20028;-63
2023/02/14 08:06:02;;;;;;;21.92;11.55;;;5.90;96.80;;;;;;5070004;28;20051;-63
2023/02/14 08:08:30;;;;;;;22.70;11.57;;;5.90;94.60;;;;;;5088143;28;20659;-63
2023/02/14 08:10:56;;;;;;;22.55;11.35;;;6.00;96.20;;;;;;5091281;28;20092;-63
2023/02/14 08:13:22;;;;;;;25.77;13.27;;;6.00;96.80;;;;;;5069302;28;20536;-63
2023/02/14 08:18:40;;;;;;;24.67;12.50;;;6.10;95.90;;;;;;5059492;28;20139;-64
2023/02/14 08:21:08;;;;;;;24.85;12.30;;;6.10;94.60;;;;;;5090863;28;20032;-63
2023/02/14 08:23:34;;;;;;;29.55;13.75;;;6.10;94.20;;;;;;5068808;28;20028;-63
2023/02/14 08:26:00;;;;;;;26.02;13.55;;;6.20;94.30;;;;;;5070426;28;20025;-64
2023/02/14 08:28:26;;;;;;;24.08;12.88;;;6.20;92.40;;;;;;5087981;28;20384;-63
2023/02/14 08:30:52;;;;;;;28.50;14.45;;;6.10;90.90;;;;;;5090719;28;20028;-63
2023/02/14 08:33:17;;;;;;;28.02;13.85;;;6.20;91.10;;;;;;5068938;28;20017;-63
2023/02/14 08:35:43;;;;;;;24.52;12.43;;;6.10;91.20;;;;;;5070434;28;20025;-63
2023/02/14 08:38:09;;;;;;;26.50;14.50;;;6.20;91.90;;;;;;5087670;28;20111;-61
2023/02/14 08:40:35;;;;;;;28.25;13.20;;;6.10;89.40;;;;;;5090568;28;20089;-63
2023/02/14 08:43:02;;;;;;;32.00;14.45;;;6.20;91.90;;;;;;5068527;28;20064;-62
2023/02/14 08:45:27;;;;;;;28.60;13.52;;;6.20;91.10;;;;;;5070137;28;20020;-63
2023/02/14 08:47:53;;;;;;;28.75;13.77;;;6.30;91.40;;;;;;5088185;28;20040;-63
2023/02/14 08:50:19;;;;;;;24.15;11.77;;;6.40;91.70;;;;;;5090267;28;20113;-63
2023/02/14 08:52:45;;;;;;;27.10;13.70;;;6.30;89.00;;;;;;5070495;28;20038;-63
2023/02/14 08:55:11;;;;;;;27.25;12.70;;;6.40;88.10;;;;;;5068681;28;20025;-63
2023/02/14 08:57:37;;;;;;;25.80;13.55;;;6.40;90.60;;;;;;5089697;28;20036;-63
2023/02/14 09:00:04;;;;;;;27.08;12.52;;;6.50;90.90;;;;;;5051046;28;20025;-63
2023/02/14 09:02:30;;;;;;;28.85;13.48;;;6.50;90.80;;;;;;5089113;28;20039;-63
2023/02/14 09:04:55;;;;;;;33.00;15.32;;;6.60;90.40;;;;;;5053849;28;20032;-63
2023/02/14 09:07:21;;;;;;;27.50;14.38;;;6.50;84.30;;;;;;5083817;28;20460;-63
2023/02/14 09:09:46;;;;;;;27.55;13.05;;;6.40;86.40;;;;;;5067642;28;20021;-64
2023/02/14 09:12:11;;;;;;;27.48;14.13;;;6.50;88.90;;;;;;5089060;28;20081;-47
2023/02/14 09:14:45;;;;;;;25.58;14.15;;;6.60;86.10;;;;;;5054243;28;20720;-67
2023/02/14 09:17:14;;;;;;;33.03;16.50;;;6.50;82.10;;;;;;5049773;28;20500;-45
2023/02/14 09:19:40;;;;;;;30.08;14.68;;;6.40;82.30;;;;;;5072145;28;20029;-44
2023/02/14 09:22:08;;;;;;;35.42;17.88;;;6.40;84.30;;;;;;5089060;28;20081;-43
2023/02/14 09:24:34;;;;;;;29.65;14.65;;;6.30;82.10;;;;;;5054385;28;20037;-49
2023/02/14 09:27:00;;;;;;;26.55;15.50;;;6.40;85.80;;;;;;5068613;28;20045;-45
2023/02/14 09:29:27;;;;;;;28.73;15.32;;;6.50;83.10;;;;;;5074142;28;20029;-46
2023/02/14 09:31:54;;;;;;;28.90;15.55;;;6.40;83.20;;;;;;5089054;28;20032;-45
2023/02/14 09:39:48;;;;;;;32.53;17.70;;;6.30;83.30;;;;;;5063233;28;20427;-46
2023/02/14 09:42:17;;;;;;;30.67;17.13;;;6.30;83.60;;;;;;5088486;28;20032;-45
2023/02/14 09:44:50;;;;;;;28.83;15.63;;;6.40;83.80;;;;;;5052668;28;20025;-48
2023/02/14 09:47:27;;;;;;;35.90;17.30;;;6.50;83.00;;;;;;5049075;28;20401;-45
2023/02/14 09:49:54;;;;;;;30.08;14.50;;;6.50;83.70;;;;;;5063629;28;20048;-47
2023/02/14 09:52:25;;;;;;;30.67;15.80;;;6.60;82.20;;;;;;5088518;28;20036;-45
2023/02/14 09:54:56;;;;;;;27.95;14.38;;;6.60;83.70;;;;;;5063193;28;20029;-43
2023/02/14 09:57:55;;;;;;;26.40;14.38;;;6.70;83.10;;;;;;5048929;28;20029;-46
2023/02/14 10:00:59;;;;;;;31.55;15.95;;;6.80;82.30;;;;;;5048764;28;20072;-47
2023/02/14 10:03:48;;;;;;;29.15;15.98;;;6.90;80.20;;;;;;5085578;28;20023;-45
2023/02/14 10:06:41;;;;;;;25.73;14.25;;;6.90;80.20;;;;;;5069493;28;20491;-52
2023/02/14 10:09:35;;;;;;;31.50;16.55;;;6.90;79.30;;;;;;5066889;28;20032;-53
2023/02/14 10:12:02;;;;;;;36.28;19.45;;;6.90;77.60;;;;;;5048739;28;20039;-49
2023/02/14 10:14:39;;;;;;;30.35;16.10;;;6.80;77.30;;;;;;5072695;28;20051;-52
2023/02/14 10:17:17;;;;;;;33.95;17.70;;;6.80;79.50;;;;;;5048643;28;20051;-54
2023/02/14 10:19:44;;;;;;;26.10;15.95;;;6.80;77.70;;;;;;5061804;28;20689;-53
2023/02/14 10:22:15;;;;;;;35.92;16.45;;;6.80;79.40;;;;;;5088214;28;20024;-52
2023/02/14 10:24:51;;;;;;;34.05;16.65;;;6.80;76.70;;;;;;5061499;28;20556;-54
2023/02/14 10:27:41;;;;;;;29.00;16.33;;;6.90;78.00;;;;;;5048422;28;20660;-54
2023/02/14 10:30:14;;;;;;;30.35;16.92;;;6.90;78.10;;;;;;5064905;28;20047;-51
2023/02/14 10:32:47;;;;;;;27.60;15.55;;;6.90;75.10;;;;;;5048328;28;20039;-56
2023/02/14 10:35:43;;;;;;;31.92;15.73;;;7.00;75.50;;;;;;5066429;28;20209;-53
2023/02/14 10:38:16;;;;;;;30.75;16.25;;;7.00;76.00;;;;;;5050206;28;20044;-54
2023/02/14 10:41:08;;;;;;;32.20;16.88;;;7.00;74.60;;;;;;5088420;28;20028;-52
2023/02/14 10:43:56;;;;;;;26.10;14.52;;;7.10;74.30;;;;;;5057424;28;20032;-54
2023/02/14 10:46:57;;;;;;;26.15;14.00;;;7.00;75.00;;;;;;5088407;28;20027;-53
2023/02/14 10:49:35;;;;;;;26.67;14.57;;;7.20;76.10;;;;;;5053884;28;20048;-54
2023/02/14 10:52:16;;;;;;;27.70;15.50;;;7.30;75.80;;;;;;5047965;28;20370;-52
2023/02/14 10:54:49;;;;;;;27.42;15.85;;;7.30;72.90;;;;;;5061377;28;20028;-54
2023/02/14 10:57:37;;;;;;;29.05;14.10;;;7.30;74.30;;;;;;5048115;28;20040;-53
2023/02/14 11:00:18;;;;;;;26.33;13.40;;;7.30;76.70;;;;;;5064107;28;20086;-54
2023/02/14 11:02:46;;;;;;;30.83;15.95;;;7.40;75.60;;;;;;5048068;28;20518;-50
2023/02/14 11:05:35;;;;;;;25.60;15.27;;;7.50;75.40;;;;;;5066499;28;20058;-53
2023/02/14 11:08:01;;;;;;;30.48;16.83;;;7.60;75.40;;;;;;5067846;28;20048;-53
2023/02/14 11:10:31;;;;;;;27.27;15.50;;;7.60;70.60;;;;;;5090454;28;20395;-54
2023/02/14 11:12:57;;;;;;;30.45;15.43;;;7.60;71.30;;;;;;5050806;28;20109;-52
2023/02/14 11:15:28;;;;;;;30.35;14.65;;;7.60;73.60;;;;;;5092039;28;20107;-54
2023/02/14 11:18:15;;;;;;;28.08;15.63;;;7.60;73.60;;;;;;5050297;28;20048;-51
2023/02/14 11:20:40;;;;;;;26.45;15.10;;;7.60;71.40;;;;;;5050527;28;20029;-52
2023/02/14 11:23:20;;;;;;;24.23;13.70;;;7.60;73.40;;;;;;5088389;28;20119;-50
2023/02/14 11:25:51;;;;;;;25.02;14.02;;;7.70;75.20;;;;;;5091779;28;20492;-54
2023/02/14 11:28:18;;;;;;;29.27;15.45;;;7.80;72.90;;;;;;5056196;28;20020;-52
2023/02/14 11:30:46;;;;;;;25.75;13.27;;;7.80;73.40;;;;;;5091947;28;20024;-53
2023/02/14 11:33:33;;;;;;;28.08;15.15;;;7.90;73.60;;;;;;5069619;28;20028;-54
2023/02/14 11:35:59;;;;;;;;;;;7.90;72.30;;;;;;5071871;28;20611;-51
2023/02/14 11:38:35;;;;;;;27.45;15.60;;;7.90;67.40;;;;;;5089036;28;20032;-53
2023/02/14 11:41:02;;;;;;;26.27;14.63;;;7.90;69.50;;;;;;5091572;28;20031;-53
2023/02/14 11:43:44;;;;;;;28.73;15.38;;;7.80;69.80;;;;;;5069667;28;20033;-52
2023/02/14 11:46:21;;;;;;;26.20;15.38;;;7.90;68.60;;;;;;5071248;28;20101;-52
2023/02/14 11:49:23;;;;;;;28.10;14.68;;;7.90;70.50;;;;;;5064074;28;20024;-54
2023/02/14 11:51:49;;;;;;;23.67;13.80;;;8.00;70.50;;;;;;5050356;28;20037;-54
2023/02/14 11:54:47;;;;;;;24.63;13.93;;;8.10;71.90;;;;;;5077160;28;20038;-51
2023/02/14 11:57:27;;;;;;;22.50;13.57;;;8.20;67.70;;;;;;5039379;28;20045;-50
2023/02/14 11:59:55;;;;;;;23.90;13.52;;;8.20;70.20;;;;;;5065643;28;20158;-55
2023/02/14 12:02:26;;;;;;;24.13;13.70;;;8.30;68.90;;;;;;5090902;28;20032;-54
2023/02/14 12:04:57;;;;;;;28.55;16.40;;;8.30;70.70;;;;;;5057785;28;20069;-55
2023/02/14 12:07:29;;;;;;;24.00;14.20;;;8.30;67.50;;;;;;5084745;28;20390;-54
2023/02/14 12:10:05;;;;;;;25.67;14.65;;;8.40;69.60;;;;;;5068915;28;20055;-55
2023/02/14 12:12:31;;;;;;;23.38;14.18;;;8.40;66.40;;;;;;5050895;28;20112;-53
2023/02/14 12:15:22;;;;;;;24.23;14.35;;;8.40;64.90;;;;;;5070581;28;20151;-53
2023/02/14 12:17:54;;;;;;;19.83;12.55;;;8.40;62.20;;;;;;5090330;28;20062;-54
2023/02/14 12:20:38;;;;;;;23.95;13.90;;;8.40;65.70;;;;;;5091029;28;20502;-52
2023/02/14 12:23:18;;;;;;;21.13;12.02;;;8.30;61.20;;;;;;5050645;28;20029;-54
2023/02/14 12:25:58;;;;;;;25.08;14.20;;;8.30;64.30;;;;;;5090709;28;20028;-50
2023/02/14 12:28:37;;;;;;;28.35;16.38;;;8.20;63.80;;;;;;5056946;28;20028;-51
2023/02/14 12:31:07;;;;;;;23.80;13.35;;;8.20;64.10;;;;;;5090819;28;20021;-53
2023/02/14 12:33:34;;;;;;;24.88;13.63;;;8.20;65.00;;;;;;5059506;28;20032;-53
2023/02/14 12:36:14;;;;;;;21.65;12.02;;;8.30;66.30;;;;;;5090624;28;20024;-54
2023/02/14 12:38:45;;;;;;;23.38;13.18;;;8.40;61.90;;;;;;5061002;28;20024;-55
2023/02/14 12:41:26;;;;;;;20.00;11.65;;;8.40;63.00;;;;;;5090390;28;20120;-53
2023/02/14 12:43:56;;;;;;;18.88;11.07;;;8.50;64.40;;;;;;5064163;28;20052;-54
2023/02/14 12:46:34;;;;;;;19.52;11.23;;;8.50;65.30;;;;;;5068071;28;20040;-55
2023/02/14 12:49:02;;;;;;;25.35;14.65;;;8.60;65.50;;;;;;5070245;28;20481;-54
2023/02/14 12:51:35;;;;;;;22.80;13.52;;;8.40;59.20;;;;;;5087610;28;20032;-55
2023/02/14 12:54:13;;;;;;;28.50;15.57;;;8.20;60.00;;;;;;5090329;28;20093;-52
2023/02/14 12:57:05;;;;;;;22.98;13.27;;;8.10;63.20;;;;;;5057184;28;20032;-55
2023/02/14 13:00:05;;;;;;;24.23;13.00;;;8.00;62.30;;;;;;5090388;28;20016;-53
2023/02/14 13:02:46;;;;;;;42.25;14.30;;;7.90;60.90;;;;;;5071181;28;20073;-53
2023/02/14 13:05:45;;;;;;;22.30;12.25;;;7.80;62.40;;;;;;5060225;28;20028;-55
2023/02/14 13:08:26;;;;;;;24.17;12.85;;;7.80;63.70;;;;;;5064803;28;20035;-53
2023/02/14 13:10:51;;;;;;;22.08;12.55;;;7.70;62.30;;;;;;5049796;28;20029;-56
2023/02/14 13:13:39;;;;;;;24.05;12.90;;;7.50;63.90;;;;;;5068765;28;20035;-53
2023/02/14 13:16:25;;;;;;;23.80;13.43;;;7.50;66.50;;;;;;5049849;28;20033;-52
2023/02/14 13:19:01;;;;;;;21.77;12.38;;;7.50;66.10;;;;;;5049557;28;20029;-53
2023/02/14 13:21:30;;;;;;;22.33;11.70;;;7.60;66.90;;;;;;5087473;28;20103;-54